• Join FlightAware (Why Join?)
  • Login
  • US Flag 
07:57AM EST


 

Airport Tracker/Info


-or-


 

Live Flight TrackerFlight Track Log ✈ N137TK ✈ 01-May-2013 ✈ KAVL - KAPF

Flight Track Log - Related Links

Times and Time Zones

All times are in EDT time to prevent confusion due to time zone crossing. See the N137TK flight status page for this flight to view local times or setup timezone preferences in your user account.

Time Position Orientation Groundspeed Altitude Reporting Facility
EDT Latitude Longitude Course Direction KTS MPH feet Rate Location/Type
08:42PM 35.3481 -82.5211 180° South 186 214 5,900  Level Atlanta Center
08:43PM 35.3000 -82.5194 178° South 194 223 7,800 1,740 Climbing Atlanta Center
08:44PM 35.2542 -82.5203 181° South 181 208 9,400 1,620 Climbing Atlanta Center
08:45PM 35.2019 -82.5189 179° South 181 208 11,100 1,560 Climbing Atlanta Center
08:46PM 35.0213 -82.5333 180° South  Level FlightAware Approximate
08:46PM 35.1475 -82.5172 179° South 181 208 12,600  Level Atlanta Center
08:47PM 34.9526 -82.5333 180° South  Level FlightAware Approximate
08:47PM 35.0956 -82.5183 181° South 186 214 14,300  Level Atlanta Center
08:48PM 35.0433 -82.5192 181° South 186 214 15,700 1,380 Climbing Atlanta Center
08:49PM 34.9931 -82.5175 178° South 191 220 17,100 1,200 Climbing Atlanta Center
08:50PM 34.9472 -82.5183 181° South 191 220 18,100 1,140 Climbing Atlanta Center
08:51PM 34.8950 -82.5167 179° South 191 220 19,400 1,200 Climbing Atlanta Center
08:52PM 34.8431 -82.5178 181° South 191 220 20,600 1,200 Climbing Atlanta Center
08:53PM 34.7950 -82.5186 181° South 186 214 21,800 1,140 Climbing Atlanta Center
08:54PM 34.7447 -82.5169 178° South 180 207 22,900 1,080 Climbing Atlanta Center
08:55PM 34.6967 -82.5128 176° South 180 207 24,000 960 Climbing Atlanta Center
08:56PM 34.6467 -82.5161 183° South 180 207 24,900 480 Climbing Atlanta Center
08:57PM 34.5947 -82.5172 181° South 180 207 25,000  Climbing Atlanta Center
08:58PM 34.5319 -82.5158 179° South 205 236 25,000  Level Atlanta Center
08:59PM 34.4611 -82.5147 179° South 231 266 25,000  Level Atlanta Center
09:00PM 34.3922 -82.5158 181° South 247 284 25,000  Level Atlanta Center
09:01PM 34.3211 -82.5172 181° South 257 296 25,000  Level Atlanta Center
09:02PM 34.2481 -82.5158 179° South 257 296 25,000  Level Atlanta Center
09:03PM 34.1731 -82.5172 181° South 257 296 25,000  Level Atlanta Center
09:04PM 34.0958 -82.5136 178° South 262 302 25,000  Level Atlanta Center
09:05PM 34.0206 -82.5150 181° South 268 308 25,000  Level Atlanta Center
09:06PM 33.9517 -82.5136 179° South 262 302 25,000  Level Atlanta Center
09:07PM 33.8786 -82.5125 179° South 262 302 25,000  Level Atlanta Center
09:08PM 33.8056 -82.5139 181° South 262 302 25,000  Level Atlanta Center
09:09PM 33.7325 -82.5150 181° South 257 296 25,000  Level Atlanta Center
09:10PM 33.6678 -82.5139 179° South 257 296 25,000  Level Atlanta Center
09:11PM 33.5947 -82.5125 179° South 264 304 25,000  Level Atlanta Center
09:12PM 33.5239 -82.5139 181° South 264 304 25,000 180 Level Atlanta Center
09:13PM 33.4550 -82.5125 179° South 259 298 25,400 420 Climbing Atlanta Center
09:14PM 33.3819 -82.5164 183° South 253 291 25,900 300 Climbing Atlanta Center
09:15PM 33.3153 -82.5150 179° South 253 291 26,000  Climbing Atlanta Center
09:16PM 33.2461 -82.5136 179° South 253 291 26,000  Level Atlanta Center
09:17PM 33.1753 -82.5125 179° South 253 291 26,000  Level Atlanta Center
09:18PM 33.1064 -82.5111 179° South 253 291 26,000  Level Atlanta Center
09:19PM 33.0353 -82.5125 181° South 253 291 26,000  Level Atlanta Center
09:20PM 32.9625 -82.5136 181° South 253 291 26,000  Level Atlanta Center
09:21PM 32.8914 -82.5125 179° South 253 291 26,000  Level Atlanta Center
09:22PM 32.7797 -82.5097 179° South 252 290 26,000  Level Jacksonville Center
09:23PM 32.7067 -82.5150 183° South 257 296 26,000  Level Jacksonville Center
09:24PM 32.6336 -82.5103 177° South 257 296 26,000  Level Jacksonville Center
09:25PM 32.5625 -82.5131 182° South 257 296 26,000  Level Jacksonville Center
09:26PM 32.4917 -82.5108 178° South 257 296 26,000  Level Jacksonville Center
09:27PM 32.4228 -82.5111 180° South 257 296 26,000  Level Jacksonville Center
09:28PM 32.3475 -82.5114 180° South 257 296 26,000  Level Jacksonville Center
09:29PM 32.2767 -82.5092 178° South 252 290 26,000  Level Jacksonville Center
09:30PM 32.2036 -82.5094 180° South 252 290 26,000  Level Jacksonville Center
09:31PM 32.1283 -82.5100 180° South 252 290 26,000  Level Jacksonville Center
09:32PM 32.0594 -82.5103 180° South 252 290 26,000  Level Jacksonville Center
09:33PM 31.9864 -82.5106 180° South 252 290 26,000  Level Jacksonville Center
09:34PM 31.9133 -82.5108 180° South 252 290 26,000  Level Jacksonville Center
09:35PM 31.8444 -82.4964 170° South 258 297 26,000  Level Jacksonville Center
09:36PM 31.7714 -82.4794 169° South 258 297 26,000  Level Jacksonville Center
09:37PM 31.7003 -82.4653 170° South 258 297 26,000  Level Jacksonville Center
09:38PM 31.6272 -82.4486 169° South 258 297 26,000  Level Jacksonville Center
09:39PM 31.5561 -82.4317 169° South 258 297 26,000  Level Jacksonville Center
09:40PM 31.4869 -82.4150 168° South 258 297 26,000  Level Jacksonville Center
09:41PM 31.4161 -82.3983 169° South 258 297 26,000  Level Jacksonville Center
09:42PM 31.3408 -82.3842 171° South 258 297 26,000  Level Jacksonville Center
09:43PM 31.2697 -82.3725 172° South 258 297 26,000  Level Jacksonville Center
09:44PM 31.1967 -82.3558 169° South 258 297 26,000  Level Jacksonville Center
09:45PM 31.1256 -82.3417 170° South 258 297 26,000  Level Jacksonville Center
09:46PM 31.0544 -82.3228 167° South 258 297 26,000  Level Jacksonville Center
09:47PM 30.9792 -82.3086 171° South 264 304 26,000  Level Jacksonville Center
09:48PM 30.9061 -82.2922 169° South 264 304 26,000  Level Jacksonville Center
09:49PM 30.8350 -82.2756 169° South 264 304 26,000  Level Jacksonville Center
09:50PM 30.7597 -82.2617 171° South 270 311 26,000  Level Jacksonville Center
09:51PM 30.6886 -82.2453 169° South 270 311 26,000  Level Jacksonville Center
09:52PM 30.6156 -82.2289 169° South 270 311 26,000  Level Jacksonville Center
09:53PM 30.5339 -82.2053 166° South 277 319 26,000  Level Jacksonville Center
09:54PM 30.4608 -82.1889 169° South 277 319 26,000  Level Jacksonville Center
09:55PM 30.3878 -82.1750 171° South 276 318 26,000  Level Jacksonville Center
09:56PM 30.3125 -82.1561 168° South 276 318 26,000  Level Jacksonville Center
09:57PM 30.2372 -82.1425 171° South 276 318 26,000  Level Jacksonville Center
09:58PM 30.1639 -82.1261 169° South 276 318 26,000  Level Jacksonville Center
09:59PM 30.0886 -82.1100 170° South 276 318 26,000  Level Jacksonville Center
10:00PM 30.0136 -82.1011 174° South 276 318 26,000  Level Jacksonville Center
10:01PM 29.9403 -82.0847 169° South 276 318 26,000  Level Jacksonville Center
10:02PM 29.8650 -82.0686 169° South 276 318 26,000  Level Jacksonville Center
10:03PM 29.7897 -82.0550 171° South 276 318 26,000  Level Jacksonville Center
10:04PM 29.7231 -82.0389 168° South 276 318 26,000  Level Jacksonville Center
10:05PM 29.6394 -82.0253 172° South 271 312 26,000  Level Jacksonville Center
10:06PM 29.5661 -82.0114 171° South 271 312 26,000  Level Jacksonville Center
10:07PM 29.4889 -81.9956 170° South 278 320 26,000  Level Jacksonville Center
10:09PM 29.3444 -81.9642 169° South 275 316 26,000  Level Miami Center
10:10PM 29.2697 -81.9511 171° South 275 316 26,000  Level Miami Center
10:11PM 29.1953 -81.9358 170° South 275 316 26,000  Level Miami Center
10:12PM 29.1208 -81.9206 170° South 275 316 26,000  Level Miami Center
10:13PM 29.0419 -81.9050 170° South 275 316 26,000  Level Miami Center
10:14PM 28.9653 -81.8922 172° South 275 316 26,000  Level Miami Center
10:15PM 28.8889 -81.8767 170° South 280 322 26,000 -300 Level Miami Center
10:16PM 28.8142 -81.8614 170° South 275 316 25,500 -540 Descending Miami Center
10:17PM 28.7314 -81.8483 172° South 280 322 25,000 -300 Descending Miami Center
10:18PM 28.6525 -81.8306 169° South 291 335 25,000  Level Miami Center
10:19PM 28.5758 -81.8153 170° South 291 335 25,000  Level Miami Center
10:20PM 28.4994 -81.7978 169° South 286 329 25,000  Level Miami Center
10:21PM 28.4247 -81.7828 170° South 280 322 25,000  Level Miami Center
10:22PM 28.3400 -81.7647 169° South 280 322 25,000 -60 Level Miami Center
10:23PM 28.2717 -81.7500 169° South 280 322 24,900 -300 Descending Miami Center
10:24PM 28.1950 -81.7325 169° South 280 322 24,400 -600 Descending Miami Center
10:25PM 28.1164 -81.7150 169° South 280 322 23,800 -660 Descending Miami Center
10:26PM 28.0356 -81.6975 169° South 285 328 23,100 -900 Descending Miami Center
10:27PM 27.9567 -81.6825 170° South 295 339 22,100 -1,020 Descending Miami Center
10:28PM 27.8842 -81.6653 168° South 289 333 21,100 -1,140 Descending Miami Center
10:29PM 27.8056 -81.6478 169° South 271 312 19,900 -1,080 Descending Miami Center
10:30PM 27.7475 -81.6383 172° South 271 312 19,000 -1,200 Descending Miami Center
10:31PM 27.6500 -81.6181 170° South 290 334 17,500 -1,440 Descending Miami Center
10:32PM 27.5692 -81.6006 169° South 295 339 16,100 -1,500 Descending Miami Center
10:33PM 27.4967 -81.5858 170° South 288 331 14,600 -1,440 Descending Miami Center
10:34PM 27.4283 -81.5714 169° South 274 315 13,300 -1,380 Descending Miami Center
10:35PM 27.3578 -81.5567 170° South 268 308 11,900 -1,320 Descending Miami Center
10:36PM 27.2894 -81.5422 169° South 262 302 10,800 -1,200 Descending Miami Center
10:37PM 27.2208 -81.5278 169° South 257 296 9,600 -960 Descending Miami Center
10:38PM 27.1631 -81.5139 168° South 243 280 9,000 -360 Descending Miami Center
10:39PM 27.1047 -81.5044 172° South 230 265 8,900 -60 Descending Miami Center
10:40PM 27.0425 -81.4950 172° South 220 253 8,900  Level Miami Center
10:41PM 26.9900 -81.5044 189° South 215 247 9,000  Climbing Miami Center
10:42PM 26.9228 -81.5206 192° South 226 260 9,000  Level Miami Center
10:43PM 26.8614 -81.5389 195° South 231 266 9,000  Level Miami Center
10:44PM 26.8025 -81.5528 192° South 231 266 9,000  Level Miami Center
10:46PM 26.7174 -81.5821 180° South  Level Estimated
10:53PM 26.3041 -81.4793 222° Southwest  Level FlightAware Approximate
10:54PM 26.2667 -81.5423 270° West  Level FlightAware Approximate
10:55PM 26.2297 -81.6061 236° Southwest  Level FlightAware Approximate
10:56PM 26.1911 -81.6704 236° Southwest  Level FlightAware Approximate